Current Conditions

Updated: 04-Jul-2015 09:58 AM  
Summary / Temperature Wind Rain






Feels like: 86°F

1-hour difference
3.4°F 3.4°F warmer than last hour.

24-hour difference
0.3°F0.3°F colder than yesterday at this time.

  Today Yesterday
High: 85.6°F
9:57 AM
103.2°F
3:37 PM
Low: 73.0°F
6:15 AM
72.9°F
6:15 AM
Wind from ESE ESE
0.3
Gust:  0.0 mph
0 Beaufort - Calm

Today: 3.5 - 9:48 AM
Month: 10.0 mph - Jul 1
Rain Today: 0.00 in
Current Rate (/hr): 0.00 in
Max Rate (/hr):
Rain Yesterday: 0.00 in
Storm Rain: 0.00 in
This Month: 0.01 in
Season Total: 0.01 in
Last Rain Event: 2 days ago
Humidity / Barometer Sun / Moon
Humidity: 46 Decreased 3.0% in the last hour.
Dew Point: 62.4°F Increased 1.4°F in the last hour.
Barometer: 29.758 inHg  
Baro Trend: Steady
Sunrise: 5:44 AM
Sunset: 8:17 PM
Moonrise: 9:37 PM
Moonset: 8:39 AM
Sky Conditions UV Index
Sky: Clear
Visibility: 10 miles
Clouds: None
KPTV - 8:55 AM PDT
Current: 6.0  High 
Saturday: 9.9  Very High 
Sunday: 9.0  Very High 
Air Quality Fire Danger
PM 2.5 Moderate
Ozone Good
9:00 AM PDT
Current: 26  Low 

Local Alerts Local Forecast
Local NWS Alerts
Today

Mostly
Sunny
High 102
Tonight

Mostly
Clear
Low 66
Sun

Mostly
Sunny
High 99
Sun night

Mostly
Clear
Low 66
Mon

Mostly
Sunny
High 97
Mon night

Mostly
Clear
Low 64
Tue

Mostly
Sunny
High 97

Local Radar Local Satellite Neighborhood Cam Sky Cam
Local Radar Local Satellite Neighborhood Cam Sky Cam


Nearby Personal Stations

Weather Underground PWS KCAPORTE5 Weather Underground PWS KCAPORTE8

Nearby METAR / Airport Stations

KPTV - Porterville, California, USA
Distance from station: SSW 4mi, 7km
Updated: Sat, 04-Jul-2015 9:55am PDT
Clear
Clear
 Wind from WSW
Wind: WSW 7 mph , 11 km/h
Temperature: 84°F , 29°C
Heat Index: 83°F , 28°C
Dew Point: 57°F , 14°C
Humidity: 40%
Barometer: 29.83 inHg , 1010.2 hPa
Clouds: Clear
Visibility: 10 miles , 16 km
2015/07/04 16:55 KPTV 041655Z 25006KT 10SM CLR 29/14 A2983 RMK AO1
KVIS - Visalia, California, USA
Distance from station: NW 27mi, 43km
Updated: Sat, 04-Jul-2015 9:55am PDT
Clear
Clear
 Wind from S
Wind: S 3 mph , 6 km/h
Temperature: 82°F , 28°C
Heat Index: 82°F , 28°C
Dew Point: 59°F , 15°C
Humidity: 45%
Barometer: 29.80 inHg , 1009.1 hPa
Clouds: Clear
Visibility: 10 miles , 16 km
2015/07/04 16:55 KVIS 041655Z AUTO 19003KT 10SM CLR 28/15 A2980 RMK AO1

Metar display script from Saratoga-Weather.org



Visitor Map